»·PEaware :: N326PR KSMO-L52

N326PR :: KSMO-L52

FLIGHT INFORMATION

Flight Status: Arrived
Operator: Privately registered:
United States
More flights under this callsign
Pilot: Teddy D. (16456)
Aircraft: Unknown
(ALC1)
More flights by this aircraft type
Origin: KSMO Santa Monica Mun
United States
Destination: L52 Oceano Co
United States
More flights between these airports :: More routes between these airports
Route: +
File this flight plan on PilotEdge
Remarks:
Altitude:
(Current/Filed)
4,500ft
Speed:
(Current/Filed)
0kts
Departed: 16-Jul-18 04:07 PM
Arrived: 16-Jul-18 05:36 PM
Distance/Time
Traveled:
126nm/1:29
Distance/Time
To Go:
Arrived

Flight Plot

Page will automatically refresh every two minutes.

Flight plan parsing failed; only flown route is shown


Map Options




Map Legend


Flown Route
Filed Route
Departure Airport
Arrival Airport
Navaid (VOR, NDB)
Fix

Horizontal Profiles

Position Reports

Time Latitude Longitude Heading Altitude Ground
Speed
16-Jul-18 16:04 34.018503 -118.447231 206 180ft 0kts
16-Jul-18 16:05 34.019854 -118.445582 4 180ft 0kts
16-Jul-18 16:06 34.019853 -118.445582 4 180ft 0kts
16-Jul-18 16:07 34.020196 -118.446176 223 180ft 20kts
16-Jul-18 16:08 34.006745 -118.461108 226 949ft 72kts
16-Jul-18 16:09 33.997722 -118.481916 291 1926ft 77kts
16-Jul-18 16:10 34.009534 -118.501974 309 2834ft 78kts
16-Jul-18 16:11 34.024503 -118.519987 314 3700ft 80kts
16-Jul-18 16:12 34.032414 -118.541951 274 4454ft 82kts
16-Jul-18 16:13 34.032346 -118.573892 264 4728ft 104kts
16-Jul-18 16:14 34.027303 -118.606210 258 4469ft 100kts
16-Jul-18 16:15 34.023728 -118.637198 266 4335ft 95kts
16-Jul-18 16:16 34.022104 -118.665077 265 4439ft 93kts
16-Jul-18 16:17 34.021798 -118.695245 272 4584ft 90kts
16-Jul-18 16:18 34.024510 -118.726120 277 4560ft 97kts
16-Jul-18 16:19 34.034335 -118.753968 306 4537ft 98kts
16-Jul-18 16:20 34.052432 -118.776363 315 4539ft 97kts
16-Jul-18 16:21 34.073168 -118.794429 321 4530ft 98kts
16-Jul-18 16:22 34.095551 -118.810296 319 4547ft 98kts
16-Jul-18 16:23 34.113933 -118.833981 306 4508ft 98kts
16-Jul-18 16:24 34.130872 -118.859094 312 4448ft 97kts
16-Jul-18 16:25 34.148560 -118.882970 302 4456ft 96kts
16-Jul-18 16:26 34.163014 -118.909875 297 4498ft 96kts
16-Jul-18 16:27 34.177992 -118.936186 308 4532ft 97kts
16-Jul-18 16:28 34.193008 -118.962490 297 4567ft 96kts
16-Jul-18 16:29 34.207590 -118.989373 301 4603ft 96kts
16-Jul-18 16:30 34.219933 -119.016869 293 4616ft 97kts
16-Jul-18 16:31 34.228482 -119.047142 280 4659ft 95kts
16-Jul-18 16:32 34.237841 -119.076961 295 4541ft 95kts
16-Jul-18 16:33 34.249092 -119.106146 289 4415ft 96kts
16-Jul-18 16:34 34.255974 -119.136822 280 4423ft 94kts
16-Jul-18 16:35 34.261965 -119.167424 285 4446ft 95kts
16-Jul-18 16:36 34.270786 -119.197536 289 4475ft 95kts
16-Jul-18 16:37 34.278476 -119.227954 279 4497ft 95kts
16-Jul-18 16:38 34.285265 -119.258657 285 4524ft 95kts
16-Jul-18 16:39 34.293695 -119.288912 289 4545ft 95kts
16-Jul-18 16:40 34.303227 -119.318689 289 4559ft 95kts
16-Jul-18 16:41 34.313722 -119.348145 291 4555ft 95kts
16-Jul-18 16:42 34.325401 -119.376977 297 4550ft 95kts
16-Jul-18 16:43 34.339169 -119.404424 302 4561ft 96kts
16-Jul-18 16:44 34.354126 -119.431075 307 4580ft 96kts
16-Jul-18 16:45 34.373183 -119.453402 286 4465ft 98kts
16-Jul-18 16:46 34.379281 -119.484137 287 4344ft 94kts
16-Jul-18 16:47 34.386725 -119.514765 283 4382ft 95kts
16-Jul-18 16:48 34.391796 -119.546066 273 4532ft 95kts
16-Jul-18 16:49 34.393354 -119.577864 281 4615ft 95kts
16-Jul-18 16:50 34.397118 -119.609493 275 4684ft 94kts
16-Jul-18 16:51 34.401246 -119.641549 282 4541ft 99kts
16-Jul-18 16:52 34.407183 -119.673692 276 4405ft 100kts
16-Jul-18 16:53 34.410049 -119.707274 271 4346ft 100kts
16-Jul-18 16:54 34.412782 -119.740528 278 4399ft 99kts
16-Jul-18 16:55 34.415168 -119.773452 278 4446ft 99kts
16-Jul-18 16:56 34.420552 -119.806330 283 4487ft 100kts
16-Jul-18 16:57 34.427050 -119.839074 282 4529ft 100kts
16-Jul-18 16:58 34.430646 -119.872464 275 4574ft 100kts
16-Jul-18 16:59 34.435351 -119.905745 282 4618ft 100kts
16-Jul-18 17:00 34.440583 -119.938945 281 4634ft 100kts
16-Jul-18 17:01 34.447099 -119.971812 282 4601ft 100kts
16-Jul-18 17:02 34.452488 -120.004996 282 4539ft 101kts
16-Jul-18 17:03 34.460032 -120.037585 286 4432ft 101kts
16-Jul-18 17:04 34.468333 -120.069754 286 4398ft 99kts
16-Jul-18 17:05 34.478415 -120.100836 293 4399ft 99kts
16-Jul-18 17:06 34.490555 -120.131057 296 4415ft 100kts
16-Jul-18 17:07 34.503800 -120.160262 302 4523ft 98kts
16-Jul-18 17:08 34.525735 -120.180131 329 4574ft 101kts
16-Jul-18 17:09 34.549885 -120.197352 322 4646ft 101kts
16-Jul-18 17:10 34.571639 -120.218496 304 4716ft 100kts
16-Jul-18 17:11 34.592755 -120.240036 327 4786ft 101kts
16-Jul-18 17:12 34.618035 -120.255393 333 4736ft 102kts
16-Jul-18 17:13 34.641641 -120.273514 316 4622ft 100kts
16-Jul-18 17:14 34.663390 -120.294664 321 4491ft 102kts
16-Jul-18 17:15 34.685519 -120.315260 327 4429ft 101kts
16-Jul-18 17:16 34.709274 -120.331810 325 4507ft 98kts
16-Jul-18 17:17 34.732769 -120.349122 329 4552ft 99kts
16-Jul-18 17:18 34.758035 -120.362567 339 4604ft 100kts
16-Jul-18 17:19 34.783651 -120.375108 341 4650ft 100kts
16-Jul-18 17:20 34.810757 -120.382049 327 4716ft 98kts
16-Jul-18 17:21 34.831823 -120.402918 320 4702ft 99kts
16-Jul-18 17:22 34.854879 -120.420899 329 4516ft 100kts
16-Jul-18 17:23 34.877756 -120.438875 325 4186ft 97kts
16-Jul-18 17:24 34.899982 -120.457671 315 3674ft 96kts
16-Jul-18 17:25 34.921630 -120.476712 327 3141ft 98kts
16-Jul-18 17:26 34.943699 -120.495919 310 2968ft 100kts
16-Jul-18 17:27 34.961503 -120.519571 309 2906ft 93kts
16-Jul-18 17:28 34.980756 -120.541287 318 2630ft 96kts
16-Jul-18 17:29 34.996647 -120.566493 306 2336ft 94kts
16-Jul-18 17:30 35.008430 -120.593297 300 2067ft 92kts
16-Jul-18 17:31 35.022939 -120.619220 311 1718ft 93kts
16-Jul-18 17:32 35.045851 -120.632055 351 1320ft 97kts
16-Jul-18 17:33 35.072489 -120.633112 358 969ft 99kts
16-Jul-18 17:34 35.081222 -120.612162 128 758ft 97kts
16-Jul-18 17:35 35.088499 -120.596617 308 549ft 72kts
16-Jul-18 17:36 35.097963 -120.615958 301 172ft 61kts
16-Jul-18 17:37 35.102686 -120.623986 37 17ft 4kts
16-Jul-18 17:38 35.103196 -120.624529 235 17ft 0kts
16-Jul-18 17:39 35.103239 -120.624460 219 17ft 1kts
16-Jul-18 17:40 35.103258 -120.624441 215 17ft 0kts
16-Jul-18 17:41 35.103258 -120.624441 215 17ft 0kts

Navigation Log

Ident Type
Flight plan parsing failed, navigation log unavailable